Time;durP1;ratioP1;P1;durP2;ratioP2;P2;SDS_P1;SDS_P2;PMS_P1;PMS_P2;Temp;Humidity;BMP_temperature;BMP_pressure;BME280_temperature;BME280_humidity;BME280_pressure;Samples;Min_cycle;Max_cycle;Signal;HPM_P1;HPM_P2
2023/02/27 00:00:59;;;;;;;6.57;1.70;;;-3.70;99.90;;;;;;5054712;28;20048;-63
2023/02/27 00:03:26;;;;;;;5.45;1.60;;;-3.70;99.90;;;;;;5055673;28;20051;-69
2023/02/27 00:05:51;;;;;;;2.78;1.25;;;-3.70;99.90;;;;;;5056533;28;20546;-65
2023/02/27 00:08:17;;;;;;;4.75;1.52;;;-3.80;99.90;;;;;;5056665;28;20029;-65
2023/02/27 00:10:43;;;;;;;4.72;1.45;;;-3.70;99.90;;;;;;5061081;28;20602;-64
2023/02/27 00:13:09;;;;;;;2.03;1.10;;;-3.70;99.90;;;;;;5056305;28;20037;-66
2023/02/27 00:15:37;;;;;;;2.88;1.20;;;-3.70;99.90;;;;;;5057431;28;20148;-68
2023/02/27 00:18:02;;;;;;;5.00;1.77;;;-3.70;99.90;;;;;;5050960;28;20041;-63
2023/02/27 00:20:28;;;;;;;2.40;1.10;;;-3.70;99.90;;;;;;5042369;28;20060;-63
2023/02/27 00:22:54;;;;;;;3.25;1.48;;;-3.70;99.90;;;;;;5046167;28;20071;-64
2023/02/27 00:25:19;;;;;;;3.40;1.27;;;-3.80;99.90;;;;;;5043207;28;20029;-64
2023/02/27 00:27:45;;;;;;;4.00;1.05;;;-3.80;99.90;;;;;;5044595;28;20033;-66
2023/02/27 00:30:13;;;;;;;3.58;1.65;;;-3.80;99.90;;;;;;5045577;28;20516;-66
2023/02/27 00:32:39;;;;;;;3.92;1.10;;;-3.80;99.90;;;;;;5045514;28;20064;-65
2023/02/27 00:35:07;;;;;;;3.15;1.40;;;-3.90;99.90;;;;;;5043111;28;20107;-65
2023/02/27 00:37:33;;;;;;;3.20;1.40;;;-4.00;99.90;;;;;;5041721;28;20523;-65
2023/02/27 00:40:00;;;;;;;2.17;1.00;;;-4.00;99.90;;;;;;5045668;28;20122;-65
2023/02/27 00:42:27;;;;;;;2.33;1.20;;;-4.00;99.90;;;;;;5042386;28;20044;-68
2023/02/27 00:44:53;;;;;;;2.13;1.27;;;-4.10;99.90;;;;;;5044258;28;20040;-65
2023/02/27 00:47:19;;;;;;;2.28;0.93;;;-4.10;99.90;;;;;;5040848;28;20041;-62
2023/02/27 00:49:44;;;;;;;2.80;1.35;;;-4.20;99.90;;;;;;5042736;28;20518;-64
2023/02/27 00:52:10;;;;;;;1.80;0.98;;;-4.20;99.90;;;;;;5041318;28;20037;-63
2023/02/27 00:54:36;;;;;;;1.33;0.93;;;-4.20;99.90;;;;;;5043106;28;20036;-63
2023/02/27 00:57:01;;;;;;;2.60;0.93;;;-4.30;99.90;;;;;;5042372;28;20615;-64
2023/02/27 00:59:27;;;;;;;1.77;0.90;;;-4.30;99.90;;;;;;5045620;28;20182;-64
2023/02/27 01:01:53;;;;;;;1.95;1.30;;;-4.30;99.90;;;;;;5040456;28;20052;-64
2023/02/27 01:04:18;;;;;;;5.97;1.50;;;-4.30;99.90;;;;;;5043292;28;20039;-63
2023/02/27 01:06:44;;;;;;;4.70;2.20;;;-4.40;99.90;;;;;;5039533;28;20125;-66
2023/02/27 01:09:10;;;;;;;1.90;0.88;;;-4.50;99.90;;;;;;5044083;28;20049;-64
2023/02/27 01:11:35;;;;;;;4.20;1.40;;;-4.50;99.90;;;;;;5039571;28;20055;-65
2023/02/27 01:14:01;;;;;;;3.15;1.67;;;-4.50;99.90;;;;;;5041714;28;20564;-65
2023/02/27 01:16:27;;;;;;;4.43;1.50;;;-4.60;99.90;;;;;;5039820;28;20044;-64
2023/02/27 01:18:53;;;;;;;3.08;1.20;;;-4.60;99.90;;;;;;5044815;28;20040;-64
2023/02/27 01:21:19;;;;;;;4.25;1.33;;;-4.60;99.90;;;;;;5042610;28;20120;-64
2023/02/27 01:23:44;;;;;;;4.57;1.48;;;-4.60;99.90;;;;;;5046946;28;20036;-65
2023/02/27 01:26:10;;;;;;;6.47;1.98;;;-4.60;99.90;;;;;;5043698;28;20041;-65
2023/02/27 01:28:36;;;;;;;3.92;1.63;;;-4.70;99.90;;;;;;5042964;28;20037;-65
2023/02/27 01:31:02;;;;;;;3.33;1.55;;;-4.80;99.90;;;;;;5039166;28;20044;-65
2023/02/27 01:33:28;;;;;;;5.55;2.10;;;-4.70;99.90;;;;;;5045670;28;20041;-66
2023/02/27 01:35:53;;;;;;;7.28;1.95;;;-4.70;99.90;;;;;;5040106;28;20081;-64
2023/02/27 01:38:19;;;;;;;11.40;1.90;;;-4.80;99.90;;;;;;5042503;28;20033;-66
2023/02/27 01:40:44;;;;;;;11.30;2.47;;;-4.80;99.90;;;;;;5043202;28;20095;-64
2023/02/27 01:43:17;;;;;;;8.45;1.75;;;-4.70;99.90;;;;;;5041951;28;20067;-62
2023/02/27 01:45:47;;;;;;;9.05;1.83;;;-4.80;99.90;;;;;;5039957;28;20076;-70
2023/02/27 01:48:23;;;;;;;3.67;1.73;;;-4.80;99.90;;;;;;5041369;28;20040;-65
2023/02/27 01:50:53;;;;;;;6.05;1.60;;;-4.90;99.90;;;;;;5041164;28;20074;-66
2023/02/27 01:53:23;;;;;;;8.05;1.98;;;-4.90;99.90;;;;;;5043311;28;20564;-66
2023/02/27 01:55:49;;;;;;;6.05;1.60;;;-4.90;99.90;;;;;;5040825;28;20037;-67
2023/02/27 01:58:16;;;;;;;5.60;1.65;;;-5.00;99.90;;;;;;5041014;28;20065;-67
2023/02/27 02:00:42;;;;;;;7.85;1.88;;;-5.00;99.90;;;;;;5037529;28;20037;-65
2023/02/27 02:03:35;;;;;;;8.30;2.38;;;-5.10;99.90;;;;;;5041899;28;20515;-66
2023/02/27 02:06:03;;;;;;;6.38;2.33;;;-5.00;99.90;;;;;;5039881;28;20049;-67
2023/02/27 02:08:33;;;;;;;11.32;2.08;;;-5.10;99.90;;;;;;5045597;28;20041;-66
2023/02/27 02:10:59;;;;;;;9.02;1.75;;;-5.10;99.90;;;;;;5041756;28;20706;-65
2023/02/27 02:13:25;;;;;;;8.70;1.80;;;-5.20;99.90;;;;;;5045305;28;20046;-64
2023/02/27 02:16:05;;;;;;;4.97;1.58;;;-5.30;99.90;;;;;;5041421;28;20048;-66
2023/02/27 02:19:15;;;;;;;5.80;2.17;;;-5.30;99.90;;;;;;5044292;28;20052;-64
2023/02/27 02:22:17;;;;;;;7.78;1.98;;;-5.20;99.90;;;;;;4992513;28;20106;-63
2023/02/27 02:25:04;;;;;;;4.35;1.60;;;-5.10;99.90;;;;;;5042906;28;20489;-64
2023/02/27 02:27:32;;;;;;;;;;;-5.10;99.90;;;;;;5041467;28;20133;-66
2023/02/27 02:30:22;;;;;;;3.88;1.42;;;-5.20;99.90;;;;;;5043338;28;19916;-64
2023/02/27 02:33:21;;;;;;;7.22;1.92;;;-5.20;99.90;;;;;;5057531;28;20097;-64
2023/02/27 02:36:09;;;;;;;4.80;1.73;;;-5.20;99.90;;;;;;5059147;28;20579;-69
2023/02/27 02:38:44;;;;;;;2.45;1.25;;;-5.20;99.90;;;;;;5060303;28;20037;-64
2023/02/27 02:41:36;;;;;;;7.93;1.63;;;-5.30;99.90;;;;;;5059048;28;20123;-65
2023/02/27 02:44:23;;;;;;;5.25;1.67;;;-5.30;99.90;;;;;;5061080;28;20895;-64
2023/02/27 02:47:03;;;;;;;;;;;-5.30;99.90;;;;;;5058993;28;20040;-64
2023/02/27 02:49:44;;;;;;;3.35;1.50;;;-5.30;99.90;;;;;;5062103;28;19920;-63
2023/02/27 02:52:27;;;;;;;6.35;2.30;;;-5.40;99.90;;;;;;5059378;28;20101;-65
2023/02/27 02:55:12;;;;;;;4.68;1.38;;;-5.40;99.90;;;;;;5063238;28;20032;-62
2023/02/27 02:57:42;;;;;;;6.72;1.77;;;-5.40;99.90;;;;;;5061660;28;20090;-63
2023/02/27 03:00:23;;;;;;;5.38;1.58;;;-5.50;99.90;;;;;;5062428;28;20519;-65
2023/02/27 03:03:09;;;;;;;4.82;1.45;;;-5.50;99.90;;;;;;5039076;28;20049;-64
2023/02/27 03:05:42;;;;;;;7.78;1.77;;;-5.50;99.90;;;;;;5043087;28;20569;-62
2023/02/27 03:08:16;;;;;;;4.88;1.70;;;-5.60;99.90;;;;;;5040515;28;20037;-63
2023/02/27 03:10:49;;;;;;;7.65;2.00;;;-5.70;99.90;;;;;;5039369;28;20730;-65
2023/02/27 03:13:23;;;;;;;8.02;1.55;;;-5.70;99.90;;;;;;5039018;28;20041;-65
2023/02/27 03:16:08;;;;;;;12.15;1.77;;;-5.70;99.90;;;;;;5054464;28;20048;-64
2023/02/27 03:18:44;;;;;;;6.93;1.60;;;-5.70;99.90;;;;;;5041025;28;20524;-65
2023/02/27 03:21:12;;;;;;;;;;;-5.70;99.90;;;;;;5041099;28;20091;-65
2023/02/27 03:23:46;;;;;;;9.57;1.60;;;-5.80;99.90;;;;;;5040128;28;20372;-65
2023/02/27 03:26:17;;;;;;;5.05;1.77;;;-5.80;99.90;;;;;;5039699;28;20123;-64
2023/02/27 03:29:10;;;;;;;3.60;1.30;;;-5.90;99.90;;;;;;5039926;28;20036;-64
2023/02/27 03:31:45;;;;;;;5.10;1.52;;;-5.80;99.90;;;;;;5045925;28;20121;-64
2023/02/27 03:34:28;;;;;;;7.88;1.88;;;-5.80;99.90;;;;;;5059685;28;20397;-64
2023/02/27 03:37:15;;;;;;;4.18;1.17;;;-5.90;99.90;;;;;;5059371;28;20150;-64
2023/02/27 03:39:58;;;;;;;5.50;1.42;;;-5.90;99.90;;;;;;5060079;28;20124;-64
2023/02/27 03:42:32;;;;;;;7.38;1.98;;;-5.90;99.90;;;;;;5055085;28;20064;-65
2023/02/27 03:45:23;;;;;;;5.05;1.73;;;-5.90;99.90;;;;;;5060922;28;20028;-65
2023/02/27 03:47:49;;;;;;;3.72;1.75;;;-6.00;99.90;;;;;;5059393;28;20037;-65
2023/02/27 03:50:15;;;;;;;6.57;1.60;;;-6.00;99.90;;;;;;5059885;28;20043;-64
2023/02/27 03:52:42;;;;;;;5.97;1.27;;;-6.00;99.90;;;;;;5060266;28;20052;-65
2023/02/27 03:55:21;;;;;;;5.97;1.45;;;-6.00;99.90;;;;;;5062339;28;20626;-61
2023/02/27 03:57:48;;;;;;;7.20;1.60;;;-6.00;99.90;;;;;;5064174;28;20119;-64
2023/02/27 04:00:17;;;;;;;3.58;1.40;;;-6.00;99.90;;;;;;5063190;28;20029;-67
2023/02/27 04:02:44;;;;;;;6.00;1.48;;;-6.00;99.90;;;;;;5059351;28;20167;-65
2023/02/27 04:05:10;;;;;;;8.00;1.67;;;-6.10;99.90;;;;;;5061182;28;20052;-65
2023/02/27 04:08:12;;;;;;;2.53;1.58;;;-6.00;99.90;;;;;;5063340;28;20094;-65
2023/02/27 04:11:08;;;;;;;4.97;1.92;;;-6.00;99.90;;;;;;5060972;28;20451;-64
2023/02/27 04:13:46;;;;;;;6.18;1.40;;;-6.10;99.90;;;;;;5062473;28;20450;-66
2023/02/27 04:16:44;;;;;;;4.30;1.80;;;-6.10;99.90;;;;;;5061566;28;20059;-65
2023/02/27 04:19:48;;;;;;;6.28;1.75;;;-6.10;99.90;;;;;;5059822;28;20040;-65
2023/02/27 04:22:16;;;;;;;7.00;1.75;;;-6.20;99.90;;;;;;5058743;28;20123;-65
2023/02/27 04:24:51;;;;;;;5.03;1.65;;;-6.20;99.90;;;;;;5061038;28;20028;-65
2023/02/27 04:27:39;;;;;;;3.78;1.55;;;-6.10;99.90;;;;;;5062293;28;20048;-65
2023/02/27 04:30:14;;;;;;;4.20;1.67;;;-6.20;99.90;;;;;;5062147;28;20037;-62
2023/02/27 04:32:52;;;;;;;7.07;1.63;;;-6.20;99.90;;;;;;5059661;28;20488;-64
2023/02/27 04:35:37;;;;;;;5.28;1.88;;;-6.20;99.90;;;;;;5061286;28;20047;-65
2023/02/27 04:38:06;;;;;;;3.05;1.35;;;-6.20;99.90;;;;;;5062324;28;20562;-65
2023/02/27 04:40:37;;;;;;;4.38;1.25;;;-6.20;99.90;;;;;;5061716;28;20150;-64
2023/02/27 04:43:06;;;;;;;8.10;1.33;;;-6.20;99.90;;;;;;5062439;28;20040;-64
2023/02/27 04:45:34;;;;;;;6.13;1.70;;;-6.20;99.90;;;;;;5060502;28;20072;-65
2023/02/27 04:48:10;;;;;;;4.45;1.67;;;-6.20;99.90;;;;;;5061555;28;20100;-66
2023/02/27 04:50:40;;;;;;;5.07;1.60;;;-6.20;99.90;;;;;;5060899;28;20032;-65
2023/02/27 04:53:21;;;;;;;4.05;1.70;;;-6.20;99.90;;;;;;5061055;28;20267;-63
2023/02/27 04:55:51;;;;;;;3.45;1.40;;;-6.20;99.90;;;;;;5058613;28;20128;-65
2023/02/27 04:58:40;;;;;;;4.45;1.50;;;-6.20;99.90;;;;;;5058099;28;20131;-66
2023/02/27 05:01:17;;;;;;;8.85;1.42;;;-6.30;99.90;;;;;;5059134;28;20086;-67
2023/02/27 05:03:48;;;;;;;4.28;1.80;;;-6.30;99.90;;;;;;5059462;28;20040;-65
2023/02/27 05:06:17;;;;;;;3.60;1.20;;;-6.30;99.90;;;;;;5061883;28;20530;-68
2023/02/27 05:08:58;;;;;;;2.05;1.15;;;-6.30;99.90;;;;;;5060506;28;20040;-67
2023/02/27 05:11:34;;;;;;;3.38;1.15;;;-6.30;99.90;;;;;;5060737;28;20060;-64
2023/02/27 05:14:12;;;;;;;3.70;1.27;;;-6.30;99.90;;;;;;5061098;28;20036;-65
2023/02/27 05:16:48;;;;;;;5.38;1.10;;;-6.40;99.90;;;;;;5059697;28;20408;-66
2023/02/27 05:19:13;;;;;;;4.93;1.45;;;-6.40;99.90;;;;;;5062735;28;20047;-69
2023/02/27 05:21:51;;;;;;;3.90;1.27;;;-6.30;99.90;;;;;;5059893;28;20045;-65
2023/02/27 05:24:29;;;;;;;8.57;1.40;;;-6.40;99.90;;;;;;5059972;28;20068;-66
2023/02/27 05:27:16;;;;;;;5.70;1.40;;;-6.30;99.90;;;;;;5060779;28;20044;-64
2023/02/27 05:29:50;;;;;;;4.63;1.30;;;-6.40;99.90;;;;;;5061990;28;20041;-65
2023/02/27 05:32:38;;;;;;;3.13;1.52;;;-6.40;99.90;;;;;;5060356;28;20044;-64
2023/02/27 05:35:17;;;;;;;5.85;1.73;;;-6.40;99.90;;;;;;5060972;28;20048;-62
2023/02/27 05:37:42;;;;;;;4.47;1.23;;;-6.40;99.90;;;;;;5056839;28;20044;-63
2023/02/27 05:40:12;;;;;;;2.03;1.23;;;-6.40;99.90;;;;;;5060047;28;20500;-64
2023/02/27 05:42:46;;;;;;;4.78;1.42;;;-6.30;99.90;;;;;;5060238;28;20037;-65
2023/02/27 05:45:24;;;;;;;2.78;1.25;;;-6.30;99.90;;;;;;5061413;28;20048;-65
2023/02/27 05:47:57;;;;;;;3.28;1.52;;;-6.30;99.90;;;;;;5060310;28;20560;-65
2023/02/27 05:50:27;;;;;;;4.25;1.63;;;-6.30;99.90;;;;;;5060024;28;20040;-65
2023/02/27 05:52:56;;;;;;;7.00;1.98;;;-6.30;99.90;;;;;;5060269;28;20616;-64
2023/02/27 05:55:30;;;;;;;3.28;1.30;;;-6.40;99.90;;;;;;5057982;28;20051;-65
2023/02/27 05:58:26;;;;;;;4.97;1.50;;;-6.40;99.90;;;;;;5056449;28;20079;-64
2023/02/27 06:00:59;;;;;;;2.38;1.30;;;-6.40;99.90;;;;;;5060040;28;20049;-64
2023/02/27 06:03:28;;;;;;;3.10;1.55;;;-6.40;99.90;;;;;;5058914;28;20040;-65
2023/02/27 06:05:56;;;;;;;2.40;1.40;;;-6.30;99.90;;;;;;5062092;28;20102;-65
2023/02/27 06:08:22;;;;;;;1.98;1.25;;;-6.30;99.90;;;;;;5057398;28;20438;-64
2023/02/27 06:10:51;;;;;;;3.78;1.67;;;-6.30;99.90;;;;;;5053590;28;20028;-65
2023/02/27 06:13:17;;;;;;;4.95;1.50;;;-6.40;99.90;;;;;;5060675;28;20048;-66
2023/02/27 06:15:45;;;;;;;4.40;2.00;;;-6.30;99.90;;;;;;5058266;28;20075;-65
2023/02/27 06:18:12;;;;;;;2.92;1.30;;;-6.40;99.90;;;;;;5059439;28;20029;-62
2023/02/27 06:20:38;;;;;;;5.18;1.50;;;-6.30;99.90;;;;;;5060582;28;20033;-63
2023/02/27 06:23:04;;;;;;;6.28;2.38;;;-6.30;99.90;;;;;;5057269;28;20064;-65
2023/02/27 06:25:30;;;;;;;4.60;1.58;;;-6.30;99.90;;;;;;5058227;28;20052;-65
2023/02/27 06:27:55;;;;;;;8.07;1.63;;;-6.30;99.90;;;;;;5056757;28;20126;-66
2023/02/27 06:30:21;;;;;;;5.15;1.45;;;-6.30;99.90;;;;;;5053424;28;20060;-66
2023/02/27 06:32:46;;;;;;;5.10;1.35;;;-6.30;99.90;;;;;;5056151;28;20126;-65
2023/02/27 06:35:12;;;;;;;2.70;1.35;;;-6.20;99.90;;;;;;5054351;28;20128;-68
2023/02/27 06:37:38;;;;;;;2.50;1.10;;;-6.20;99.90;;;;;;5052757;28;20045;-66
2023/02/27 06:40:10;;;;;;;3.25;1.63;;;-6.20;99.90;;;;;;5053748;28;20046;-64
2023/02/27 06:42:37;;;;;;;8.15;1.67;;;-6.10;99.90;;;;;;5060539;28;20036;-65
2023/02/27 06:45:03;;;;;;;4.07;1.45;;;-6.10;99.90;;;;;;5058429;28;20811;-65
2023/02/27 06:47:29;;;;;;;2.13;1.00;;;-6.10;99.90;;;;;;5057869;28;20049;-65
2023/02/27 06:49:54;;;;;;;4.97;1.58;;;-6.00;99.90;;;;;;5061410;28;20145;-66
2023/02/27 06:52:20;;;;;;;6.00;1.67;;;-6.00;99.90;;;;;;5059574;28;20036;-65
2023/02/27 06:54:45;;;;;;;4.07;1.77;;;-6.00;99.90;;;;;;5059977;28;20127;-66
2023/02/27 06:57:11;;;;;;;4.70;1.50;;;-6.00;99.90;;;;;;5057969;28;20411;-65
2023/02/27 06:59:37;;;;;;;5.53;1.40;;;-5.90;99.90;;;;;;5060100;28;20044;-66
2023/02/27 07:02:05;;;;;;;4.90;1.30;;;-5.80;99.90;;;;;;5056894;28;20036;-67
2023/02/27 07:04:31;;;;;;;5.30;1.77;;;-5.50;99.90;;;;;;5059630;28;20408;-64
2023/02/27 07:06:57;;;;;;;4.53;1.98;;;-5.00;99.90;;;;;;5058322;28;20040;-64
2023/02/27 07:09:23;;;;;;;5.18;1.83;;;-4.50;99.90;;;;;;5059437;28;20040;-65
2023/02/27 07:11:49;;;;;;;6.80;2.40;;;-4.30;99.90;;;;;;5059026;28;20123;-67
2023/02/27 07:14:15;;;;;;;8.23;2.20;;;-4.20;99.90;;;;;;5058949;28;20496;-67
2023/02/27 07:16:41;;;;;;;11.27;3.45;;;-4.10;99.90;;;;;;5056168;28;20048;-66
2023/02/27 07:19:07;;;;;;;8.65;2.80;;;-3.50;99.90;;;;;;5060134;28;20051;-64
2023/02/27 07:21:33;;;;;;;13.82;3.55;;;-2.80;99.90;;;;;;5058675;28;20060;-66
2023/02/27 07:23:58;;;;;;;4.90;1.98;;;-2.60;99.90;;;;;;5063881;28;20047;-66
2023/02/27 07:26:24;;;;;;;4.13;1.90;;;-2.40;99.90;;;;;;5062465;28;20765;-65
2023/02/27 07:28:50;;;;;;;8.00;2.08;;;-1.80;99.90;;;;;;5057937;28;20083;-65
2023/02/27 07:31:16;;;;;;;8.55;2.55;;;-1.80;99.90;;;;;;5058990;28;20036;-67
2023/02/27 07:33:42;;;;;;;3.53;2.17;;;-1.90;99.90;;;;;;5062612;28;20098;-64
2023/02/27 07:36:08;;;;;;;5.40;2.70;;;-2.10;99.90;;;;;;5062437;28;20439;-65
2023/02/27 07:38:33;;;;;;;6.90;2.97;;;-2.20;99.90;;;;;;5043843;28;20042;-65
2023/02/27 07:40:59;;;;;;;5.90;2.22;;;-1.90;99.90;;;;;;5062475;28;20032;-65
2023/02/27 07:43:25;;;;;;;6.53;2.50;;;-1.70;99.90;;;;;;5057353;28;20048;-65
2023/02/27 07:45:51;;;;;;;8.60;2.45;;;-1.60;99.90;;;;;;5065670;28;20102;-64
2023/02/27 07:48:17;;;;;;;7.03;2.53;;;-1.50;99.90;;;;;;5063766;28;20047;-63
2023/02/27 07:50:43;;;;;;;15.52;3.33;;;-1.80;99.90;;;;;;5062890;28;20028;-66
2023/02/27 07:53:09;;;;;;;10.50;3.05;;;-1.50;99.90;;;;;;5063000;28;20157;-65
2023/02/27 07:55:34;;;;;;;11.10;3.40;;;-1.20;99.90;;;;;;5061101;28;20106;-65
2023/02/27 07:58:00;;;;;;;7.28;2.90;;;-0.40;99.90;;;;;;5060927;28;20052;-64
2023/02/27 08:00:26;;;;;;;5.28;3.25;;;-0.20;99.90;;;;;;5057888;28;20024;-65
2023/02/27 08:02:51;;;;;;;8.60;2.70;;;-0.20;99.90;;;;;;5064072;28;20043;-64
2023/02/27 08:05:17;;;;;;;12.52;3.10;;;0.20;99.90;;;;;;5063982;28;20041;-65
2023/02/27 08:07:42;;;;;;;7.15;2.72;;;0.40;99.90;;;;;;5066522;28;20076;-65
2023/02/27 08:10:09;;;;;;;7.85;2.95;;;0.40;99.90;;;;;;5066856;28;20035;-65
2023/02/27 08:12:34;;;;;;;6.82;3.58;;;0.40;99.90;;;;;;5059714;28;20048;-64
2023/02/27 08:15:00;;;;;;;11.93;3.60;;;0.00;99.90;;;;;;5060170;28;20677;-64
2023/02/27 08:17:26;;;;;;;8.32;4.10;;;-0.10;99.90;;;;;;5061186;28;20534;-65
2023/02/27 08:19:51;;;;;;;8.57;3.53;;;-0.10;99.90;;;;;;5054545;28;20037;-64
2023/02/27 08:22:17;;;;;;;8.50;3.33;;;0.00;99.90;;;;;;5060660;28;20119;-65
2023/02/27 08:24:42;;;;;;;8.93;3.97;;;0.00;99.90;;;;;;5061634;28;20480;-64
2023/02/27 08:27:08;;;;;;;5.68;2.42;;;0.00;99.90;;;;;;5061686;28;20040;-67
2023/02/27 08:29:34;;;;;;;5.18;2.78;;;-0.10;99.90;;;;;;5061483;28;20089;-65
2023/02/27 08:32:01;;;;;;;3.25;1.65;;;-0.30;99.90;;;;;;5056665;28;20132;-63
2023/02/27 08:34:27;;;;;;;7.90;3.83;;;-0.50;99.90;;;;;;5062565;28;20032;-64
2023/02/27 08:36:53;;;;;;;16.88;6.78;;;-0.90;99.90;;;;;;5065858;28;20725;-66
2023/02/27 08:39:19;;;;;;;12.38;5.03;;;-1.10;99.90;;;;;;5066850;28;20131;-65
2023/02/27 08:41:44;;;;;;;5.93;3.40;;;-1.20;99.90;;;;;;5060707;28;20500;-65
2023/02/27 08:44:11;;;;;;;4.85;2.30;;;-1.30;99.90;;;;;;5062059;28;20041;-65
2023/02/27 08:46:37;;;;;;;3.85;1.83;;;-1.30;99.90;;;;;;5063832;28;20055;-66
2023/02/27 08:49:03;;;;;;;8.52;2.88;;;-1.20;99.90;;;;;;5062531;28;20040;-64
2023/02/27 08:51:29;;;;;;;6.63;2.10;;;-1.20;99.90;;;;;;5060052;28;20366;-66
2023/02/27 08:53:57;;;;;;;6.68;2.53;;;-1.30;99.90;;;;;;5061908;28;20102;-64
2023/02/27 08:56:26;;;;;;;4.78;2.55;;;-1.30;99.90;;;;;;5063123;28;20127;-65
2023/02/27 08:58:52;;;;;;;8.15;3.22;;;-1.10;99.90;;;;;;5063778;28;20116;-65
2023/02/27 09:01:18;;;;;;;3.78;2.20;;;-0.90;99.90;;;;;;5061322;28;20107;-64
2023/02/27 09:03:44;;;;;;;3.47;1.83;;;-0.80;99.90;;;;;;5065094;28;20043;-64
2023/02/27 09:06:10;;;;;;;6.78;1.63;;;-0.60;99.90;;;;;;5059396;28;20044;-64
2023/02/27 09:08:35;;;;;;;9.02;2.20;;;-0.40;99.90;;;;;;5060726;28;20044;-66
2023/02/27 09:11:01;;;;;;;7.88;1.90;;;-0.20;99.90;;;;;;5065261;28;20025;-63
2023/02/27 09:13:28;;;;;;;5.20;2.20;;;-0.20;99.90;;;;;;5063735;28;20063;-65
2023/02/27 09:15:54;;;;;;;4.25;1.90;;;-0.10;99.90;;;;;;5059988;28;20501;-62
2023/02/27 09:18:21;;;;;;;5.57;1.95;;;-0.10;99.90;;;;;;5060461;28;20127;-65
2023/02/27 09:20:49;;;;;;;5.55;2.08;;;-0.20;99.90;;;;;;5061472;28;20416;-64
2023/02/27 09:23:15;;;;;;;5.70;2.00;;;-0.30;99.90;;;;;;5059097;28;20036;-66
2023/02/27 09:25:41;;;;;;;10.15;2.40;;;-0.40;99.90;;;;;;5060117;28;20035;-62
2023/02/27 09:28:07;;;;;;;5.05;2.50;;;-0.40;99.90;;;;;;5058604;28;20520;-66
2023/02/27 09:30:32;;;;;;;3.35;1.80;;;-0.30;99.90;;;;;;5058683;28;20041;-65
2023/02/27 09:32:58;;;;;;;6.60;2.00;;;-0.10;99.90;;;;;;5059086;28;20135;-66
2023/02/27 09:35:24;;;;;;;6.97;1.77;;;-0.10;99.90;;;;;;5059299;28;20044;-64
2023/02/27 09:37:50;;;;;;;5.45;2.05;;;0.00;99.90;;;;;;5061625;28;20044;-66
2023/02/27 09:40:25;;;;;;;9.35;2.80;;;0.00;99.90;;;;;;5062325;28;20136;-65
2023/02/27 09:42:53;;;;;;;10.63;2.17;;;-0.10;99.90;;;;;;5061464;28;20464;-64
2023/02/27 09:45:28;;;;;;;5.32;2.20;;;-0.10;99.90;;;;;;5059803;28;20044;-62
2023/02/27 09:48:05;;;;;;;8.30;2.00;;;-0.10;99.90;;;;;;5062734;28;20040;-65
2023/02/27 09:50:43;;;;;;;9.98;1.73;;;0.10;99.90;;;;;;5063142;28;20123;-65
2023/02/27 09:53:32;;;;;;;6.43;1.98;;;0.10;99.90;;;;;;5062983;28;20044;-63
2023/02/27 09:56:20;;;;;;;6.53;2.13;;;0.20;99.90;;;;;;5056719;28;20595;-64
2023/02/27 09:58:56;;;;;;;10.88;2.13;;;0.10;99.90;;;;;;5057947;28;20033;-63
2023/02/27 10:01:31;;;;;;;4.35;1.83;;;0.10;99.90;;;;;;5061050;28;20892;-63
2023/02/27 10:04:04;;;;;;;6.78;1.77;;;0.00;99.90;;;;;;5061414;28;20179;-62
2023/02/27 10:06:47;;;;;;;6.63;2.10;;;-0.10;99.90;;;;;;5059998;28;20585;-64
2023/02/27 10:09:58;;;;;;;6.43;2.33;;;0.00;99.90;;;;;;5055497;28;20056;-63
2023/02/27 10:12:34;;;;;;;8.23;1.77;;;0.10;99.90;;;;;;5036118;28;20513;-64
2023/02/27 10:15:25;;;;;;;5.97;1.70;;;0.30;99.90;;;;;;5052648;28;20492;-65
2023/02/27 10:18:02;;;;;;;3.92;2.25;;;0.60;99.90;;;;;;5053898;28;20044;-62
2023/02/27 10:20:32;;;;;;;8.43;2.78;;;0.70;99.90;;;;;;5057916;28;20597;-64
2023/02/27 10:23:03;;;;;;;6.53;2.50;;;1.00;99.90;;;;;;5056211;28;20036;-64
2023/02/27 10:25:34;;;;;;;7.78;2.92;;;0.80;99.90;;;;;;5056556;28;20044;-65
2023/02/27 10:28:11;;;;;;;6.50;2.88;;;0.60;99.90;;;;;;5055738;28;20047;-64
2023/02/27 10:30:37;;;;;;;5.13;2.80;;;0.60;99.90;;;;;;5052817;28;20049;-64
2023/02/27 10:33:22;;;;;;;5.53;2.50;;;0.70;99.90;;;;;;5057821;28;20536;-65
2023/02/27 10:35:50;;;;;;;8.05;2.33;;;0.60;99.90;;;;;;5055487;28;20041;-63
2023/02/27 10:38:18;;;;;;;4.13;2.35;;;0.80;99.90;;;;;;5057715;28;20048;-64
2023/02/27 10:40:45;;;;;;;5.18;2.20;;;1.30;99.90;;;;;;5062522;28;20079;-61
2023/02/27 10:43:15;;;;;;;8.05;2.10;;;1.60;99.90;;;;;;5062162;28;20036;-65
2023/02/27 10:45:42;;;;;;;4.70;2.28;;;2.00;99.90;;;;;;5059245;28;20039;-64
2023/02/27 10:48:09;;;;;;;6.93;2.22;;;1.70;99.90;;;;;;5056563;28;20515;-63
2023/02/27 10:50:38;;;;;;;5.75;2.38;;;1.50;99.90;;;;;;5055139;28;20037;-66
2023/02/27 10:53:15;;;;;;;10.23;3.03;;;0.90;99.90;;;;;;5060276;28;20047;-62
2023/02/27 10:55:46;;;;;;;7.25;2.78;;;0.60;99.90;;;;;;5060333;28;20032;-65
2023/02/27 10:58:18;;;;;;;5.90;2.88;;;0.70;99.90;;;;;;5058224;28;20036;-64
2023/02/27 11:00:58;;;;;;;6.20;3.03;;;0.80;99.90;;;;;;5050632;28;20037;-65
2023/02/27 11:03:32;;;;;;;8.07;3.85;;;0.80;99.90;;;;;;5058667;28;20040;-64
2023/02/27 11:06:14;;;;;;;7.25;3.28;;;0.40;99.90;;;;;;5056840;28;20090;-65
2023/02/27 11:08:39;;;;;;;7.97;2.55;;;0.40;99.90;;;;;;5059706;28;20099;-64
2023/02/27 11:11:08;;;;;;;5.30;2.47;;;0.20;99.90;;;;;;5056615;28;20692;-62
2023/02/27 11:13:40;;;;;;;4.63;2.00;;;0.30;99.90;;;;;;5058418;28;20043;-66
2023/02/27 11:16:15;;;;;;;10.25;3.78;;;0.60;99.90;;;;;;5058823;28;20040;-65
2023/02/27 11:18:44;;;;;;;6.57;2.30;;;0.70;99.90;;;;;;5060307;28;20052;-61
2023/02/27 11:21:24;;;;;;;9.32;3.13;;;0.70;99.90;;;;;;5059686;28;20102;-62
2023/02/27 11:23:52;;;;;;;6.25;2.10;;;0.70;99.90;;;;;;5055933;28;20075;-65
2023/02/27 11:26:29;;;;;;;4.85;2.22;;;0.70;99.90;;;;;;5055511;28;20551;-65
2023/02/27 11:29:10;;;;;;;6.25;1.60;;;0.70;99.90;;;;;;5058961;28;20151;-64
2023/02/27 11:31:38;;;;;;;7.20;2.90;;;0.80;99.90;;;;;;5055323;28;20389;-65
2023/02/27 11:34:05;;;;;;;5.85;1.98;;;0.60;99.90;;;;;;5056589;28;20083;-68
2023/02/27 11:36:48;;;;;;;7.28;2.83;;;0.70;99.90;;;;;;5057866;28;20052;-66
2023/02/27 11:39:32;;;;;;;7.72;2.15;;;0.60;99.90;;;;;;5052614;28;20165;-64
2023/02/27 11:42:10;;;;;;;6.22;1.65;;;0.50;99.90;;;;;;5052864;28;20036;-66
2023/02/27 11:44:36;;;;;;;5.90;1.80;;;0.70;99.90;;;;;;5056467;28;20040;-65
2023/02/27 11:47:19;;;;;;;5.20;1.67;;;0.80;99.90;;;;;;5052029;28;20041;-65
2023/02/27 11:50:09;;;;;;;6.05;1.65;;;0.90;99.90;;;;;;5053591;28;20090;-65
2023/02/27 11:52:49;;;;;;;4.55;2.20;;;1.10;99.90;;;;;;5051878;28;20032;-65
2023/02/27 11:55:20;;;;;;;8.57;1.73;;;1.20;99.90;;;;;;5052152;28;20040;-65
2023/02/27 11:57:53;;;;;;;6.78;1.75;;;1.20;99.90;;;;;;5054058;28;20072;-64
2023/02/27 12:00:22;;;;;;;5.88;1.40;;;1.30;99.90;;;;;;5054438;28;20041;-65
2023/02/27 12:03:06;;;;;;;4.45;1.77;;;1.20;99.90;;;;;;5050304;28;20032;-63
2023/02/27 12:05:38;;;;;;;5.47;1.70;;;1.20;99.90;;;;;;5050510;28;20049;-65
2023/02/27 12:08:36;;;;;;;4.43;1.50;;;1.10;99.90;;;;;;5051885;28;20083;-63
2023/02/27 12:11:12;;;;;;;3.10;1.23;;;1.20;99.90;;;;;;5036810;28;20089;-65
2023/02/27 12:13:41;;;;;;;5.38;1.52;;;1.60;99.90;;;;;;5057421;28;20045;-64
2023/02/27 12:16:38;;;;;;;6.32;1.40;;;1.90;99.90;;;;;;5059635;28;20048;-66
2023/02/27 12:19:36;;;;;;;2.38;1.05;;;1.90;99.90;;;;;;5057435;28;20497;-65
2023/02/27 12:22:11;;;;;;;3.25;1.00;;;1.70;99.90;;;;;;5061082;28;20136;-64
2023/02/27 12:24:45;;;;;;;4.40;1.27;;;1.50;99.90;;;;;;5055153;28;20052;-64
2023/02/27 12:27:30;;;;;;;5.32;1.30;;;1.50;99.90;;;;;;5060547;28;20063;-65
2023/02/27 12:30:07;;;;;;;2.38;1.10;;;1.50;99.90;;;;;;5057556;28;20496;-62
2023/02/27 12:32:42;;;;;;;2.65;1.13;;;1.50;99.90;;;;;;5055259;28;20056;-65
2023/02/27 12:35:34;;;;;;;7.05;1.63;;;1.70;99.90;;;;;;5051251;28;20068;-69
2023/02/27 12:38:01;;;;;;;5.75;2.30;;;1.80;99.90;;;;;;5062421;28;20043;-65
2023/02/27 12:40:36;;;;;;;4.57;1.10;;;1.80;99.90;;;;;;5062261;28;20428;-64
2023/02/27 12:43:10;;;;;;;8.23;1.20;;;1.90;99.90;;;;;;5061126;28;20125;-64
2023/02/27 12:45:47;;;;;;;2.80;0.98;;;1.90;99.90;;;;;;5057789;28;20113;-65
2023/02/27 12:48:28;;;;;;;6.93;1.05;;;1.80;99.90;;;;;;5057721;28;20149;-65
2023/02/27 12:51:08;;;;;;;2.42;1.10;;;2.00;99.90;;;;;;5062024;28;20040;-63
2023/02/27 12:53:33;;;;;;;3.42;1.45;;;2.20;99.90;;;;;;5060464;28;20165;-64
2023/02/27 12:56:18;;;;;;;3.35;1.40;;;2.40;99.90;;;;;;5062174;28;20044;-64
2023/02/27 12:59:05;;;;;;;5.40;1.52;;;2.60;99.90;;;;;;5061819;28;20037;-65
2023/02/27 13:01:52;;;;;;;3.65;1.30;;;2.50;99.90;;;;;;5057890;28;20102;-64
2023/02/27 13:04:17;;;;;;;4.85;1.83;;;2.40;99.90;;;;;;5060664;28;20119;-65
2023/02/27 13:06:58;;;;;;;3.38;1.40;;;2.30;99.90;;;;;;5060962;28;20147;-65
2023/02/27 13:09:48;;;;;;;5.15;2.03;;;2.20;99.90;;;;;;5059980;28;20546;-65
2023/02/27 13:12:27;;;;;;;6.57;1.52;;;2.20;99.90;;;;;;5060006;28;20060;-63
2023/02/27 13:14:56;;;;;;;3.65;1.35;;;2.10;99.90;;;;;;5056067;28;20044;-65
2023/02/27 13:17:37;;;;;;;6.07;1.55;;;2.20;99.90;;;;;;5057463;28;20608;-64